Terminal Aerodrome Forecast
Issued by NWS Norman, OK

Home | Current Version | Previous Version | Text Only | Print | Product List | Glossary On
Versions: 1 2 3 4 5 6 7 8 9 10 11 12
000
FTUS44 KOUN 251120
TAFSPS
TAF
KSPS 251120Z 2512/2612 19008KT P6SM SKC=

USA.gov is the U.S. government's official web portal to all federal, state and local government web resources and services.